Alidade — ALIDADE — position and weather

sailwx.info

Track history (hours):
 
Tides and Currents Weather Stations Pressure Air Temp Water Temp Dewpoint Dewpoint Depression Visibility Wind Speed Wind Dir Waves Ship Positions

Alidade

Last reported at 2017-Sep-21 09:09 UTC. Time now 2017-Oct-18 04:06 UTC.
Position S 27°30' E 153°22'.
Warning: this ship's position is 26 days out of date.

Length 14 m.

Type: Pleasure craft. MMSI: 503013860.

Date/timePositionNaut miles runAvg speedWind from/ knotsBaromVisibWave heightAir tempDewpointWater temp
2017-Sep-21 09:09S 27°30' E 153°22'0 0.0
2017-Sep-21 07:22S 27°30' E 153°22'0 0.0
2017-Sep-21 06:49S 27°30' E 153°22'0 0.0
2017-Sep-21 05:58S 27°30' E 153°22'0 0.0
2017-Sep-21 04:52S 27°30' E 153°22'0 0.0
2017-Sep-21 04:22S 27°30' E 153°22'0 0.0
2017-Sep-21 03:03S 27°30' E 153°22'4 5.0
2017-Sep-21 02:16S 27°34' E 153°21'1 4.5
2017-Sep-21 01:59S 27°35' E 153°20'2 4.8
2017-Sep-21 01:30S 27°37' E 153°19'2 4.6
2017-Sep-21 01:00S 27°39' E 153°21'1 2.7
2017-Sep-21 00:30S 27°40' E 153°22'2 3.4
2017-Sep-21 00:00S 27°42' E 153°22'1 3.0
2017-Sep-20 23:30S 27°43' E 153°21'2 3.7
2017-Sep-20 23:00S 27°45' E 153°21'3 5.5
2017-Sep-20 22:30S 27°47' E 153°23'2 4.9
2017-Sep-20 22:00S 27°49' E 153°25'3 5.6
2017-Sep-20 21:30S 27°52' E 153°25'3 5.3
2017-Sep-20 21:00S 27°55' E 153°25'0 0.0
2017-Sep-20 07:06S 27°55' E 153°25'0 0.0
2017-Sep-20 07:00S 27°55' E 153°25'0 0.0
2017-Sep-20 06:30S 27°55' E 153°25'0 0.0
2017-Sep-20 06:00S 27°55' E 153°25'0 0.0
2017-Sep-20 05:30S 27°55' E 153°25'0 0.0
2017-Sep-20 05:00S 27°55' E 153°25'1 2.1
2017-Sep-20 04:30S 27°56' E 153°24'1 1.3
2017-Sep-20 03:57S 27°57' E 153°25'0 0.0
2017-Sep-19 21:44S 27°57' E 153°25'0 0.2
2017-Sep-19 21:30S 27°57' E 153°25'0 0.0
2017-Sep-19 20:59S 27°57' E 153°25'0 0.1
2017-Sep-19 20:29S 27°57' E 153°25'0 0.0
2017-Sep-19 12:00S 27°57' E 153°25'0 0.0
2017-Sep-19 11:27S 27°57' E 153°25'0 0.0
2017-Sep-19 11:00S 27°57' E 153°25'0 0.0
2017-Sep-19 10:30S 27°57' E 153°25'0 0.0
2017-Sep-19 10:00S 27°57' E 153°25'0 0.0
2017-Sep-19 09:30S 27°57' E 153°25'0 0.0
2017-Sep-19 09:00S 27°57' E 153°25'0 0.0
2017-Sep-19 08:30S 27°57' E 153°25'0 0.0
2017-Sep-19 08:00S 27°57' E 153°25'0 0.0
2017-Sep-19 07:27S 27°57' E 153°25'0 0.1
2017-Sep-19 07:00S 27°57' E 153°25'0 0.0
2017-Sep-19 06:29S 27°57' E 153°25'0 0.0
2017-Sep-19 05:56S 27°57' E 153°25'0 0.0
2017-Sep-19 05:29S 27°57' E 153°25'0 0.0
2017-Sep-19 04:59S 27°57' E 153°25'0 0.0
2017-Sep-19 04:26S 27°57' E 153°25'0 0.4
2017-Sep-19 04:00S 27°56' E 153°25'2 4.3
2017-Sep-19 03:30S 27°56' E 153°27'4 8.4
2017-Sep-19 03:00S 27°56' E 153°32'4 8.1
2017-Sep-19 02:30S 27°54' E 153°36'4 8.4
2017-Sep-19 01:59S 27°53' E 153°41'1 1.4
2017-Sep-19 01:30S 27°52' E 153°41'4 8.9
2017-Sep-19 01:00S 27°52' E 153°36'3 7.0
2017-Sep-19 00:30S 27°53' E 153°32'4 7.4
2017-Sep-19 00:00S 27°55' E 153°28'3 5.8
2017-Sep-18 23:31S 27°56' E 153°25'1 1.3
2017-Sep-18 22:59S 27°57' E 153°25'0 0.0
2017-Sep-18 22:30S 27°57' E 153°25'0 0.0
2017-Sep-18 11:11S 27°57' E 153°25'0 0.0
2017-Sep-18 10:59S 27°57' E 153°25'0 0.0
2017-Sep-18 10:29S 27°57' E 153°25'0 0.0
2017-Sep-18 09:59S 27°57' E 153°25'0 0.0
2017-Sep-18 09:26S 27°57' E 153°25'0 0.0
2017-Sep-18 08:59S 27°57' E 153°25'0 0.1
2017-Sep-18 08:29S 27°57' E 153°25'0 0.0
2017-Sep-18 07:58S 27°57' E 153°25'0 0.0
2017-Sep-18 07:28S 27°57' E 153°25'0 0.0
2017-Sep-18 06:55S 27°57' E 153°25'0 0.0
2017-Sep-18 06:22S 27°57' E 153°25'0 0.0
2017-Sep-18 05:58S 27°57' E 153°25'0 0.0
2017-Sep-18 05:25S 27°57' E 153°25'0 0.0
2017-Sep-18 04:58S 27°57' E 153°25'0 0.0
2017-Sep-18 04:28S 27°57' E 153°25'0 0.0
2017-Sep-18 03:58S 27°57' E 153°25'0 0.0
2017-Sep-18 03:28S 27°57' E 153°25'0 0.0
2017-Sep-18 02:58S 27°57' E 153°25'0 0.0
2017-Sep-18 02:28S 27°57' E 153°25'0 0.0
2017-Sep-18 01:58S 27°57' E 153°25'0 0.0
2017-Sep-18 01:28S 27°57' E 153°25'0 0.0
2017-Sep-18 00:58S 27°57' E 153°25'0 0.0
2017-Sep-18 00:28S 27°57' E 153°25'  
2017-Sep-12 08:33S 27°52' E 153°20'0 0.0
2017-Sep-12 08:30S 27°52' E 153°20'0 0.0
2017-Sep-12 08:00S 27°52' E 153°20'0 0.0
2017-Sep-12 07:30S 27°52' E 153°20'0 0.0
2017-Sep-12 07:00S 27°52' E 153°20'0 0.0
2017-Sep-12 06:30S 27°52' E 153°20'0 0.0
2017-Sep-12 06:00S 27°52' E 153°20'0 0.0
2017-Sep-12 05:30S 27°52' E 153°20'0 0.0
2017-Sep-12 05:00S 27°52' E 153°20'0 0.0
2017-Sep-12 04:30S 27°52' E 153°20'0 0.0
2017-Sep-12 04:00S 27°52' E 153°20'0 0.0
2017-Sep-12 03:30S 27°52' E 153°20'0 0.0
2017-Sep-12 03:00S 27°52' E 153°20'0 0.0
2017-Sep-12 02:30S 27°52' E 153°20'0 0.0
2017-Sep-12 01:57S 27°52' E 153°20'0 0.0
2017-Sep-12 01:30S 27°52' E 153°20'0 0.0
2017-Sep-12 01:00S 27°52' E 153°20'0 0.0
2017-Sep-12 00:30S 27°52' E 153°20'  
Track history (hours):
 
Tides and Currents Weather Stations Pressure Air Temp Water Temp Dewpoint Dewpoint Depression Visibility Wind Speed Wind Dir Waves Ship Positions

Alidade

Last reported at 2017-Sep-21 09:09 UTC. Time now 2017-Oct-18 04:06 UTC.
Position S 27°30' E 153°22'.
Warning: this ship's position is 26 days out of date.

Length 14 m.

Type: Pleasure craft. MMSI: 503013860.

Date/timePositionNaut miles runAvg speedWind from/ knotsBaromVisibWave heightAir tempDewpointWater temp
2017-Sep-21 09:09S 27°30' E 153°22'0 0.0
2017-Sep-21 07:22S 27°30' E 153°22'0 0.0
2017-Sep-21 06:49S 27°30' E 153°22'0 0.0
2017-Sep-21 05:58S 27°30' E 153°22'0 0.0
2017-Sep-21 04:52S 27°30' E 153°22'0 0.0
2017-Sep-21 04:22S 27°30' E 153°22'0 0.0
2017-Sep-21 03:03S 27°30' E 153°22'4 5.0
2017-Sep-21 02:16S 27°34' E 153°21'1 4.5
2017-Sep-21 01:59S 27°35' E 153°20'2 4.8
2017-Sep-21 01:30S 27°37' E 153°19'2 4.6
2017-Sep-21 01:00S 27°39' E 153°21'1 2.7
2017-Sep-21 00:30S 27°40' E 153°22'2 3.4
2017-Sep-21 00:00S 27°42' E 153°22'1 3.0
2017-Sep-20 23:30S 27°43' E 153°21'2 3.7
2017-Sep-20 23:00S 27°45' E 153°21'3 5.5
2017-Sep-20 22:30S 27°47' E 153°23'2 4.9
2017-Sep-20 22:00S 27°49' E 153°25'3 5.6
2017-Sep-20 21:30S 27°52' E 153°25'3 5.3
2017-Sep-20 21:00S 27°55' E 153°25'0 0.0
2017-Sep-20 07:06S 27°55' E 153°25'0 0.0
2017-Sep-20 07:00S 27°55' E 153°25'0 0.0
2017-Sep-20 06:30S 27°55' E 153°25'0 0.0
2017-Sep-20 06:00S 27°55' E 153°25'0 0.0
2017-Sep-20 05:30S 27°55' E 153°25'0 0.0
2017-Sep-20 05:00S 27°55' E 153°25'1 2.1
2017-Sep-20 04:30S 27°56' E 153°24'1 1.3
2017-Sep-20 03:57S 27°57' E 153°25'0 0.0
2017-Sep-19 21:44S 27°57' E 153°25'0 0.2
2017-Sep-19 21:30S 27°57' E 153°25'0 0.0
2017-Sep-19 20:59S 27°57' E 153°25'0 0.1
2017-Sep-19 20:29S 27°57' E 153°25'0 0.0
2017-Sep-19 12:00S 27°57' E 153°25'0 0.0
2017-Sep-19 11:27S 27°57' E 153°25'0 0.0
2017-Sep-19 11:00S 27°57' E 153°25'0 0.0
2017-Sep-19 10:30S 27°57' E 153°25'0 0.0
2017-Sep-19 10:00S 27°57' E 153°25'0 0.0
2017-Sep-19 09:30S 27°57' E 153°25'0 0.0
2017-Sep-19 09:00S 27°57' E 153°25'0 0.0
2017-Sep-19 08:30S 27°57' E 153°25'0 0.0
2017-Sep-19 08:00S 27°57' E 153°25'0 0.0
2017-Sep-19 07:27S 27°57' E 153°25'0 0.1
2017-Sep-19 07:00S 27°57' E 153°25'0 0.0
2017-Sep-19 06:29S 27°57' E 153°25'0 0.0
2017-Sep-19 05:56S 27°57' E 153°25'0 0.0
2017-Sep-19 05:29S 27°57' E 153°25'0 0.0
2017-Sep-19 04:59S 27°57' E 153°25'0 0.0
2017-Sep-19 04:26S 27°57' E 153°25'0 0.4
2017-Sep-19 04:00S 27°56' E 153°25'2 4.3
2017-Sep-19 03:30S 27°56' E 153°27'4 8.4
2017-Sep-19 03:00S 27°56' E 153°32'4 8.1
2017-Sep-19 02:30S 27°54' E 153°36'4 8.4
2017-Sep-19 01:59S 27°53' E 153°41'1 1.4
2017-Sep-19 01:30S 27°52' E 153°41'4 8.9
2017-Sep-19 01:00S 27°52' E 153°36'3 7.0
2017-Sep-19 00:30S 27°53' E 153°32'4 7.4
2017-Sep-19 00:00S 27°55' E 153°28'3 5.8
2017-Sep-18 23:31S 27°56' E 153°25'1 1.3
2017-Sep-18 22:59S 27°57' E 153°25'0 0.0
2017-Sep-18 22:30S 27°57' E 153°25'0 0.0
2017-Sep-18 11:11S 27°57' E 153°25'0 0.0
2017-Sep-18 10:59S 27°57' E 153°25'0 0.0
2017-Sep-18 10:29S 27°57' E 153°25'0 0.0
2017-Sep-18 09:59S 27°57' E 153°25'0 0.0
2017-Sep-18 09:26S 27°57' E 153°25'0 0.0
2017-Sep-18 08:59S 27°57' E 153°25'0 0.1
2017-Sep-18 08:29S 27°57' E 153°25'0 0.0
2017-Sep-18 07:58S 27°57' E 153°25'0 0.0
2017-Sep-18 07:28S 27°57' E 153°25'0 0.0
2017-Sep-18 06:55S 27°57' E 153°25'0 0.0
2017-Sep-18 06:22S 27°57' E 153°25'0 0.0
2017-Sep-18 05:58S 27°57' E 153°25'0 0.0
2017-Sep-18 05:25S 27°57' E 153°25'0 0.0
2017-Sep-18 04:58S 27°57' E 153°25'0 0.0
2017-Sep-18 04:28S 27°57' E 153°25'0 0.0
2017-Sep-18 03:58S 27°57' E 153°25'0 0.0
2017-Sep-18 03:28S 27°57' E 153°25'0 0.0
2017-Sep-18 02:58S 27°57' E 153°25'0 0.0
2017-Sep-18 02:28S 27°57' E 153°25'0 0.0
2017-Sep-18 01:58S 27°57' E 153°25'0 0.0
2017-Sep-18 01:28S 27°57' E 153°25'0 0.0
2017-Sep-18 00:58S 27°57' E 153°25'0 0.0
2017-Sep-18 00:28S 27°57' E 153°25'  
2017-Sep-12 08:33S 27°52' E 153°20'0 0.0
2017-Sep-12 08:30S 27°52' E 153°20'0 0.0
2017-Sep-12 08:00S 27°52' E 153°20'0 0.0
2017-Sep-12 07:30S 27°52' E 153°20'0 0.0
2017-Sep-12 07:00S 27°52' E 153°20'0 0.0
2017-Sep-12 06:30S 27°52' E 153°20'0 0.0
2017-Sep-12 06:00S 27°52' E 153°20'0 0.0
2017-Sep-12 05:30S 27°52' E 153°20'0 0.0
2017-Sep-12 05:00S 27°52' E 153°20'0 0.0
2017-Sep-12 04:30S 27°52' E 153°20'0 0.0
2017-Sep-12 04:00S 27°52' E 153°20'0 0.0
2017-Sep-12 03:30S 27°52' E 153°20'0 0.0
2017-Sep-12 03:00S 27°52' E 153°20'0 0.0
2017-Sep-12 02:30S 27°52' E 153°20'0 0.0
2017-Sep-12 01:57S 27°52' E 153°20'0 0.0
2017-Sep-12 01:30S 27°52' E 153°20'0 0.0
2017-Sep-12 01:00S 27°52' E 153°20'0 0.0
2017-Sep-12 00:30S 27°52' E 153°20'  

Dump ship's entire track history